createdAt,value
2019-03-31T00:00:14.536Z,8.53
2019-03-31T00:01:15.303Z,8.39
2019-03-31T00:02:16.028Z,8.38
2019-03-31T00:03:16.792Z,8.35
2019-03-31T00:04:17.557Z,8.42
2019-03-31T00:05:18.316Z,8.39
2019-03-31T00:06:19.075Z,8.45
2019-03-31T00:07:19.843Z,8.46
2019-03-31T00:08:20.605Z,8.42
2019-03-31T00:09:21.392Z,8.39
2019-03-31T00:10:22.154Z,8.41
2019-03-31T00:11:22.911Z,8.53
2019-03-31T00:12:24.156Z,8.34
2019-03-31T00:13:24.676Z,8.41
2019-03-31T00:14:25.802Z,8.42
2019-03-31T00:15:26.285Z,8.38
2019-03-31T00:16:26.765Z,8.46
2019-03-31T00:17:27.542Z,8.41
2019-03-31T00:18:28.863Z,8.41
2019-03-31T00:19:29.352Z,8.52
2019-03-31T00:20:29.557Z,8.54
2019-03-31T00:21:29.759Z,8.41
2019-03-31T00:22:30.268Z,8.35
2019-03-31T00:23:30.748Z,8.44
2019-03-31T00:24:31.502Z,8.38
2019-03-31T00:25:32.004Z,8.32
2019-03-31T00:26:33.315Z,8.28
2019-03-31T00:27:33.842Z,8.24
2019-03-31T00:28:34.371Z,8.13
2019-03-31T00:29:35.419Z,8.08
2019-03-31T00:30:35.620Z,8.05
2019-03-31T00:31:36.254Z,8.01
2019-03-31T00:32:37.573Z,8.03
2019-03-31T00:33:38.387Z,7.93
2019-03-31T00:34:38.870Z,7.91
2019-03-31T00:35:39.352Z,7.96
2019-03-31T00:36:40.113Z,7.99
2019-03-31T00:37:40.877Z,8.06
2019-03-31T00:38:41.359Z,8.05
2019-03-31T00:39:42.453Z,8.05
2019-03-31T00:40:43.290Z,8.16
2019-03-31T00:41:43.790Z,8.05
2019-03-31T00:42:44.464Z,8.11
2019-03-31T00:43:45.226Z,8.17
2019-03-31T00:44:45.984Z,8.16
2019-03-31T00:45:47.078Z,8.18
2019-03-31T00:46:47.850Z,8.2
2019-03-31T00:47:48.328Z,8.21
2019-03-31T00:48:48.538Z,8.21
2019-03-31T00:49:49.368Z,8.18
2019-03-31T00:50:49.848Z,8.21
2019-03-31T00:51:50.349Z,8.2
2019-03-31T00:52:51.460Z,8.21
2019-03-31T00:53:52.224Z,8.23
2019-03-31T00:54:53.537Z,8.18
2019-03-31T00:55:54.321Z,8.27
2019-03-31T00:56:55.155Z,8.21
2019-03-31T00:57:55.476Z,8.28
2019-03-31T00:58:55.950Z,8.21
2019-03-31T00:59:56.152Z,8.2
2019-03-31T01:00:56.668Z,8.35
2019-03-31T01:01:56.886Z,8.31
2019-03-31T01:02:57.647Z,8.35
2019-03-31T01:03:58.416Z,8.28
2019-03-31T01:04:58.626Z,8.35
2019-03-31T01:05:59.382Z,8.35
2019-03-31T01:07:00.182Z,8.31
2019-03-31T01:08:01.497Z,8.2
2019-03-31T01:09:02.555Z,8.14
2019-03-31T01:10:03.044Z,8.09
2019-03-31T01:11:03.636Z,8.06
2019-03-31T01:12:04.126Z,8.09
2019-03-31T01:13:04.773Z,8.06
2019-03-31T01:14:06.083Z,8.05
2019-03-31T01:15:06.565Z,7.87
2019-03-31T01:16:07.328Z,7.88
2019-03-31T01:17:08.090Z,7.88
2019-03-31T01:18:08.850Z,7.84
2019-03-31T01:19:09.338Z,7.8
2019-03-31T01:20:10.102Z,7.75
2019-03-31T01:21:11.140Z,7.81
2019-03-31T01:22:11.344Z,7.7
2019-03-31T01:23:11.874Z,7.56
2019-03-31T01:24:12.712Z,7.55
2019-03-31T01:25:13.473Z,7.56
2019-03-31T01:26:14.010Z,7.59
2019-03-31T01:27:14.204Z,7.55
2019-03-31T01:28:14.422Z,7.47
2019-03-31T01:29:14.909Z,7.31
2019-03-31T01:30:15.395Z,7.39
2019-03-31T01:31:16.167Z,7.32
2019-03-31T01:32:16.654Z,7.21
2019-03-31T01:33:16.944Z,7.26
2019-03-31T01:34:17.463Z,7.21
2019-03-31T01:35:18.296Z,7.21
2019-03-31T01:36:18.503Z,7.21
2019-03-31T01:37:21.226Z,7.25
2019-03-31T01:38:22.065Z,7.23
2019-03-31T01:39:22.553Z,7.37
2019-03-31T01:40:23.595Z,7.39
2019-03-31T01:41:23.365Z,7.39
2019-03-31T01:42:23.847Z,7.36
2019-03-31T01:43:24.058Z,7.41
2019-03-31T01:44:24.822Z,7.44
2019-03-31T01:45:25.859Z,7.44
2019-03-31T01:46:26.622Z,7.46
2019-03-31T01:47:27.668Z,7.46
2019-03-31T01:48:27.428Z,7.41
2019-03-31T01:49:28.188Z,7.41
2019-03-31T01:50:29.001Z,7.37
2019-03-31T01:51:29.774Z,7.31
2019-03-31T01:52:29.979Z,7.32
2019-03-31T01:53:30.484Z,7.4
2019-03-31T01:54:30.972Z,7.36
2019-03-31T01:55:31.453Z,7.46
2019-03-31T01:56:32.492Z,7.25
2019-03-31T01:57:32.691Z,7.21
2019-03-31T01:58:33.772Z,7.26
2019-03-31T01:59:34.252Z,7.1
2019-03-31T02:00:34.491Z,7.18
2019-03-31T02:01:35.808Z,7.05
2019-03-31T02:02:36.174Z,7.03
2019-03-31T02:03:37.139Z,7.07
2019-03-31T02:04:37.350Z,6.93
2019-03-31T02:05:37.828Z,7.04
2019-03-31T02:06:37.875Z,6.97
2019-03-31T02:07:39.196Z,7.11
2019-03-31T02:08:39.985Z,7.07
2019-03-31T02:09:40.191Z,7.05
2019-03-31T02:10:40.955Z,7.07
2019-03-31T02:11:42.287Z,7.08
2019-03-31T02:12:43.324Z,7.05
2019-03-31T02:13:43.872Z,7.08
2019-03-31T02:14:44.362Z,7.13
2019-03-31T02:15:44.568Z,7.08
2019-03-31T02:16:45.605Z,7.05
2019-03-31T02:17:46.087Z,7.1
2019-03-31T02:18:46.292Z,7.08
2019-03-31T02:19:47.060Z,7.04
2019-03-31T02:20:48.102Z,7.08
2019-03-31T02:21:48.878Z,7.1
2019-03-31T02:22:49.368Z,7.01
2019-03-31T02:23:49.605Z,7.08
2019-03-31T02:24:51.100Z,7.08
2019-03-31T02:25:51.142Z,7.08
2019-03-31T02:26:51.931Z,7.14
2019-03-31T02:27:52.257Z,7.15
2019-03-31T02:28:52.831Z,7.21
2019-03-31T02:29:53.425Z,7.19
2019-03-31T02:30:54.289Z,7.14
2019-03-31T02:31:55.126Z,7.03
2019-03-31T02:32:56.607Z,6.96
2019-03-31T02:33:57.701Z,7.01
2019-03-31T02:34:58.095Z,6.93
2019-03-31T02:35:59.142Z,6.96
2019-03-31T02:37:00.223Z,6.89
2019-03-31T02:38:00.942Z,6.85
2019-03-31T02:39:00.982Z,6.83
2019-03-31T02:40:02.520Z,6.87
2019-03-31T02:41:04.009Z,6.82
2019-03-31T02:42:03.826Z,6.77
2019-03-31T02:43:04.586Z,6.82
2019-03-31T02:44:05.500Z,6.75
2019-03-31T02:45:06.537Z,6.75
2019-03-31T02:46:07.581Z,6.77
2019-03-31T02:47:08.881Z,6.72
2019-03-31T02:48:08.704Z,6.85
2019-03-31T02:49:09.601Z,6.75
2019-03-31T02:50:10.214Z,6.8
2019-03-31T02:51:10.835Z,6.72
2019-03-31T02:52:11.271Z,6.72
2019-03-31T02:53:11.878Z,6.74
2019-03-31T02:54:12.111Z,6.82
2019-03-31T02:55:13.445Z,6.92
2019-03-31T02:56:14.229Z,6.87
2019-03-31T02:57:15.588Z,6.8
2019-03-31T02:58:16.205Z,6.8
2019-03-31T02:59:16.582Z,6.89
2019-03-31T03:00:16.935Z,6.87
2019-03-31T03:01:17.014Z,6.87
2019-03-31T03:02:18.076Z,6.83
2019-03-31T03:03:18.870Z,6.83
2019-03-31T03:04:19.449Z,6.75
2019-03-31T03:05:21.991Z,6.74
2019-03-31T03:06:23.642Z,6.7
2019-03-31T03:07:23.820Z,6.64
2019-03-31T03:08:24.143Z,6.57
2019-03-31T03:09:25.462Z,6.72
2019-03-31T03:10:26.402Z,6.57
2019-03-31T03:11:26.891Z,6.6
2019-03-31T03:12:28.492Z,6.6
2019-03-31T03:13:28.363Z,6.64
2019-03-31T03:14:29.741Z,6.6
2019-03-31T03:15:29.796Z,6.57
2019-03-31T03:16:30.689Z,6.6
2019-03-31T03:17:31.755Z,6.6
2019-03-31T03:18:32.942Z,6.62
2019-03-31T03:19:33.279Z,6.57
2019-03-31T03:20:34.622Z,6.62
2019-03-31T03:21:34.660Z,6.59
2019-03-31T03:22:36.284Z,6.59
2019-03-31T03:23:37.331Z,6.5
2019-03-31T03:24:38.501Z,6.49
2019-03-31T03:25:59.998Z,6.5
2019-03-31T03:27:00.859Z,6.5
2019-03-31T03:28:01.659Z,6.53
2019-03-31T03:29:02.674Z,6.56
2019-03-31T03:30:09.677Z,6.65
2019-03-31T03:30:13.368Z,6.57
2019-03-31T03:31:18.484Z,6.67
2019-03-31T03:31:23.289Z,6.57
2019-03-31T03:32:25.091Z,6.7
2019-03-31T03:33:25.794Z,6.75
2019-03-31T03:34:27.074Z,6.8
2019-03-31T03:35:28.396Z,6.8
2019-03-31T03:36:29.465Z,6.89
2019-03-31T03:37:30.869Z,6.82
2019-03-31T03:38:31.219Z,6.83
2019-03-31T03:39:32.010Z,6.86
2019-03-31T03:40:33.362Z,6.82
2019-03-31T03:41:33.858Z,6.87
2019-03-31T03:42:34.934Z,6.93
2019-03-31T03:44:06.634Z,6.87
2019-03-31T03:45:07.447Z,7
2019-03-31T03:46:08.212Z,7.01
2019-03-31T03:47:09.383Z,7.05
2019-03-31T03:48:09.874Z,7.03
2019-03-31T03:49:12.921Z,6.96
2019-03-31T03:50:12.058Z,6.96
2019-03-31T03:51:13.128Z,7.01
2019-03-31T03:52:13.644Z,6.86
2019-03-31T03:53:15.087Z,6.8
2019-03-31T03:54:16.699Z,6.74
2019-03-31T03:55:16.492Z,6.65
2019-03-31T03:56:17.272Z,6.59
2019-03-31T03:57:18.105Z,6.64
2019-03-31T03:58:18.181Z,6.62
2019-03-31T03:59:19.547Z,6.62
2019-03-31T04:00:20.059Z,6.46
2019-03-31T04:01:21.080Z,6.62
2019-03-31T04:02:22.273Z,6.62
2019-03-31T04:03:33.079Z,6.57
2019-03-31T04:04:34.720Z,6.49
2019-03-31T04:05:35.131Z,6.56
2019-03-31T04:06:36.577Z,6.49
2019-03-31T04:07:37.044Z,6.56
2019-03-31T04:08:37.949Z,6.53
2019-03-31T04:09:39.585Z,6.46
2019-03-31T04:10:39.746Z,6.46
2019-03-31T04:11:40.794Z,6.47
2019-03-31T04:12:41.716Z,6.52
2019-03-31T04:13:42.321Z,6.5
2019-03-31T04:14:43.251Z,6.46
2019-03-31T04:15:43.590Z,6.46
2019-03-31T04:16:44.081Z,6.38
2019-03-31T04:17:44.887Z,6.44
2019-03-31T04:18:45.386Z,6.34
2019-03-31T04:19:46.010Z,6.32
2019-03-31T04:20:47.070Z,6.35
2019-03-31T04:21:49.112Z,6.35
2019-03-31T04:22:48.451Z,6.35
2019-03-31T04:23:50.146Z,6.32
2019-03-31T04:24:50.115Z,6.34
2019-03-31T04:25:51.028Z,6.34
2019-03-31T04:26:51.835Z,6.32
2019-03-31T04:27:52.908Z,6.2
2019-03-31T04:28:53.527Z,6.19
2019-03-31T04:29:54.701Z,6.2
2019-03-31T04:30:55.887Z,6.31
2019-03-31T04:31:55.683Z,6.34
2019-03-31T04:32:56.039Z,6.29
2019-03-31T04:33:57.687Z,6.28
2019-03-31T04:34:58.844Z,6.22
2019-03-31T04:35:59.273Z,6.29
2019-03-31T04:36:59.605Z,6.36
2019-03-31T04:38:00.987Z,6.22
2019-03-31T04:39:02.243Z,6.36
2019-03-31T04:40:03.438Z,6.25
2019-03-31T04:41:04.333Z,6.34
2019-03-31T04:42:05.049Z,6.35
2019-03-31T04:43:05.908Z,6.29
2019-03-31T04:44:06.822Z,6.31
2019-03-31T04:45:07.642Z,6.32
2019-03-31T04:46:09.259Z,6.36
2019-03-31T04:47:09.854Z,6.34
2019-03-31T04:48:10.275Z,6.35
2019-03-31T04:49:10.890Z,6.38
2019-03-31T04:50:11.932Z,6.41
2019-03-31T04:51:12.725Z,6.41
2019-03-31T04:52:13.220Z,6.47
2019-03-31T04:53:13.999Z,6.52
2019-03-31T04:54:15.043Z,6.5
2019-03-31T04:55:14.970Z,6.52
2019-03-31T04:56:15.568Z,6.46
2019-03-31T04:57:16.055Z,6.54
2019-03-31T04:58:16.550Z,6.53
2019-03-31T04:59:17.584Z,6.54
2019-03-31T05:00:18.072Z,6.54
2019-03-31T05:01:18.558Z,6.46
2019-03-31T05:02:18.906Z,6.47
2019-03-31T05:03:19.250Z,6.34
2019-03-31T05:04:20.579Z,6.38
2019-03-31T05:05:22.105Z,6.39
2019-03-31T05:06:22.532Z,6.34
2019-03-31T05:07:23.019Z,6.28
2019-03-31T05:08:23.781Z,6.28
2019-03-31T05:09:24.545Z,6.12
2019-03-31T05:10:24.752Z,6.09
2019-03-31T05:11:25.534Z,6.02
2019-03-31T05:12:26.365Z,6.17
2019-03-31T05:13:27.155Z,6.02
2019-03-31T05:14:27.987Z,6.07
2019-03-31T05:15:28.937Z,6.01
2019-03-31T05:16:29.424Z,6.02
2019-03-31T05:17:30.203Z,6.12
2019-03-31T05:18:30.687Z,6.01
2019-03-31T05:19:31.729Z,6.02
2019-03-31T05:20:31.938Z,6.12
2019-03-31T05:21:32.420Z,6.12
2019-03-31T05:22:33.458Z,5.97
2019-03-31T05:23:33.950Z,5.97
2019-03-31T05:24:35.267Z,5.99
2019-03-31T05:25:35.579Z,6.15
2019-03-31T05:26:35.786Z,6.19
2019-03-31T05:27:36.274Z,6.25
2019-03-31T05:28:37.039Z,6.34
2019-03-31T05:29:38.089Z,6.29
2019-03-31T05:30:39.437Z,6.35
2019-03-31T05:31:39.649Z,6.36
2019-03-31T05:32:39.937Z,6.34
2019-03-31T05:33:40.706Z,6.34
2019-03-31T05:34:41.745Z,6.38
2019-03-31T05:35:42.384Z,6.35
2019-03-31T05:36:43.146Z,6.39
2019-03-31T05:37:53.670Z,6.39
2019-03-31T05:38:54.606Z,6.46
2019-03-31T05:39:54.807Z,6.44
2019-03-31T05:40:55.296Z,6.46
2019-03-31T05:41:56.070Z,6.49
2019-03-31T05:42:57.106Z,6.54
2019-03-31T05:44:07.910Z,6.59
2019-03-31T05:45:08.425Z,6.64
2019-03-31T05:46:09.749Z,6.56
2019-03-31T05:47:10.815Z,6.68
2019-03-31T05:48:11.853Z,6.64
2019-03-31T05:49:12.897Z,6.72
2019-03-31T05:50:13.680Z,6.65
2019-03-31T05:51:14.164Z,6.71
2019-03-31T05:52:14.972Z,6.72
2019-03-31T05:53:16.285Z,6.74
2019-03-31T05:54:16.857Z,6.68
2019-03-31T05:55:20.968Z,6.72
2019-03-31T05:55:27.498Z,6.72
2019-03-31T05:56:28.896Z,6.72
2019-03-31T05:57:29.789Z,6.74
2019-03-31T05:58:29.983Z,6.67
2019-03-31T05:59:30.196Z,6.82
2019-03-31T06:00:31.239Z,6.86
2019-03-31T06:01:32.018Z,6.89
2019-03-31T06:02:32.785Z,7
2019-03-31T06:03:33.549Z,7.07
2019-03-31T06:04:35.010Z,7.08
2019-03-31T06:05:35.775Z,7.22
2019-03-31T06:06:38.446Z,7.23
2019-03-31T06:07:39.027Z,7.32
2019-03-31T06:08:40.356Z,7.44
2019-03-31T06:09:39.832Z,7.47
2019-03-31T06:10:40.634Z,7.5
2019-03-31T06:11:41.134Z,7.59
2019-03-31T06:12:41.905Z,7.58
2019-03-31T06:13:42.393Z,7.64
2019-03-31T06:14:43.164Z,7.64
2019-03-31T06:15:44.212Z,7.67
2019-03-31T06:16:44.887Z,7.72
2019-03-31T06:17:45.671Z,7.78
2019-03-31T06:18:46.435Z,7.93
2019-03-31T06:19:46.642Z,8.01
2019-03-31T06:20:47.129Z,8.42
2019-03-31T06:21:47.346Z,9.13
2019-03-31T06:22:48.108Z,9.85
2019-03-31T06:23:49.512Z,10.65
2019-03-31T06:24:50.004Z,11.22
2019-03-31T06:25:50.770Z,11.97
2019-03-31T06:26:51.290Z,12.45
2019-03-31T06:27:51.905Z,13.2
2019-03-31T06:28:52.404Z,13.8
2019-03-31T06:29:53.177Z,14.37
2019-03-31T06:30:54.260Z,15.07
2019-03-31T06:31:54.758Z,15.37
2019-03-31T06:32:56.947Z,16.08
2019-03-31T06:33:57.758Z,16.41
2019-03-31T06:34:58.533Z,16.83
2019-03-31T06:35:58.767Z,17.23
2019-03-31T06:36:59.278Z,17.42
2019-03-31T06:38:00.701Z,17.93
2019-03-31T06:39:01.544Z,18.18
2019-03-31T06:40:01.661Z,18.57
2019-03-31T06:41:02.445Z,18.86
2019-03-31T06:42:03.497Z,19.19
2019-03-31T06:43:04.275Z,19.38
2019-03-31T06:44:04.843Z,19.23
2019-03-31T06:45:05.899Z,19.07
2019-03-31T06:46:06.679Z,19.17
2019-03-31T06:47:08.130Z,19.27
2019-03-31T06:48:08.903Z,19.52
2019-03-31T06:49:10.035Z,19.74
2019-03-31T06:50:10.534Z,20.07
2019-03-31T06:51:11.596Z,20.19
2019-03-31T06:52:12.664Z,20.4
2019-03-31T06:53:13.469Z,20.04
2019-03-31T06:54:13.966Z,20.02
2019-03-31T06:55:14.480Z,19.84
2019-03-31T06:56:15.256Z,19.96
2019-03-31T06:57:16.153Z,19.75
2019-03-31T06:58:16.947Z,19.84
2019-03-31T06:59:17.510Z,19.94
2019-03-31T07:00:18.016Z,19.84
2019-03-31T07:01:18.528Z,19.92
2019-03-31T07:02:19.312Z,19.97
2019-03-31T07:03:20.091Z,19.89
2019-03-31T07:04:20.588Z,19.94
2019-03-31T07:05:21.362Z,19.94
2019-03-31T07:06:21.591Z,20.1
2019-03-31T07:07:25.227Z,19.99
2019-03-31T07:08:25.751Z,20.12
2019-03-31T07:09:26.554Z,20.37
2019-03-31T07:10:27.149Z,20.49
2019-03-31T07:11:28.205Z,20.55
2019-03-31T07:12:28.990Z,20.39
2019-03-31T07:13:29.839Z,19.66
2019-03-31T07:14:30.971Z,19.11
2019-03-31T07:15:31.476Z,19.44
2019-03-31T07:16:32.258Z,19.6
2019-03-31T07:17:32.500Z,19.62
2019-03-31T07:18:33.559Z,19.94
2019-03-31T07:19:34.144Z,19.64
2019-03-31T07:20:34.653Z,19.41
2019-03-31T07:21:35.448Z,19.7
2019-03-31T07:22:35.947Z,20.22
2019-03-31T07:23:36.773Z,20.56
2019-03-31T07:24:38.113Z,20.64
2019-03-31T07:25:38.949Z,20.56
2019-03-31T07:26:40.008Z,20.73
2019-03-31T07:27:41.099Z,20.29
2019-03-31T07:28:41.900Z,20.44
2019-03-31T07:29:42.682Z,20.77
2019-03-31T07:30:43.459Z,20.82
2019-03-31T07:31:44.516Z,21.11
2019-03-31T07:32:45.025Z,20.93
2019-03-31T07:33:45.530Z,20.88
2019-03-31T07:34:46.586Z,20.71
2019-03-31T07:35:48.003Z,20.26
2019-03-31T07:36:48.502Z,20.07
2019-03-31T07:37:49.639Z,19.63
2019-03-31T07:38:51.712Z,19.52
2019-03-31T07:39:53.015Z,19.42
2019-03-31T07:40:53.363Z,19.23
2019-03-31T07:41:54.004Z,19.34
2019-03-31T07:42:54.418Z,19.48
2019-03-31T07:43:54.258Z,19.29
2019-03-31T07:44:55.055Z,19.26
2019-03-31T07:45:57.330Z,19.08
2019-03-31T07:46:58.112Z,19.55
2019-03-31T07:47:58.967Z,19.82
2019-03-31T07:49:00.030Z,20.39
2019-03-31T07:50:00.384Z,20.64
2019-03-31T07:51:00.899Z,20.95
2019-03-31T07:52:01.707Z,21.44
2019-03-31T07:53:02.248Z,21.62
2019-03-31T07:54:02.640Z,21.56
2019-03-31T07:55:03.266Z,21.13
2019-03-31T07:56:04.066Z,21.1
2019-03-31T07:57:08.582Z,21.07
2019-03-31T07:58:09.272Z,20.63
2019-03-31T07:59:10.191Z,20.59
2019-03-31T08:00:11.339Z,20.5
2019-03-31T08:01:11.158Z,20.63
2019-03-31T08:02:11.970Z,20.78
2019-03-31T08:03:12.476Z,20.85
2019-03-31T08:04:12.611Z,20.6
2019-03-31T08:05:13.116Z,20.49
2019-03-31T08:06:14.042Z,20.44
2019-03-31T08:07:14.818Z,20.83
2019-03-31T08:08:15.078Z,20.75
2019-03-31T08:09:16.045Z,20.96
2019-03-31T08:10:16.827Z,20.98
2019-03-31T08:11:18.563Z,20.95
2019-03-31T08:12:19.450Z,20.82
2019-03-31T08:13:20.227Z,20.98
2019-03-31T08:14:20.725Z,21.37
2019-03-31T08:15:21.792Z,21.66
2019-03-31T08:16:23.127Z,21.83
2019-03-31T08:17:23.422Z,22.16
2019-03-31T08:18:24.114Z,21.85
2019-03-31T08:19:24.649Z,22.23
2019-03-31T08:20:25.454Z,22.49
2019-03-31T08:21:26.787Z,22.56
2019-03-31T08:22:27.126Z,22.59
2019-03-31T08:23:28.058Z,22.59
2019-03-31T08:24:28.837Z,22.55
2019-03-31T08:25:29.941Z,22.36
2019-03-31T08:26:31.003Z,22.26
2019-03-31T08:27:31.782Z,22.23
2019-03-31T08:28:32.070Z,21.88
2019-03-31T08:29:32.624Z,21.5
2019-03-31T08:30:33.458Z,21.37
2019-03-31T08:31:34.812Z,21.08
2019-03-31T08:32:36.145Z,21.51
2019-03-31T08:33:36.925Z,21.7
2019-03-31T08:34:38.263Z,21.81
2019-03-31T08:35:49.584Z,21.56
2019-03-31T08:36:49.267Z,21.66
2019-03-31T08:37:50.050Z,21.78
2019-03-31T08:38:50.471Z,22.23
2019-03-31T08:39:51.035Z,22.37
2019-03-31T08:40:51.096Z,22.76
2019-03-31T08:41:51.876Z,22.93
2019-03-31T08:42:52.668Z,23.01
2019-03-31T08:43:53.449Z,22.83
2019-03-31T08:44:54.232Z,22.53
2019-03-31T08:45:55.289Z,22.25
2019-03-31T08:46:55.791Z,21.88
2019-03-31T08:47:56.288Z,21.65
2019-03-31T08:48:57.347Z,21.08
2019-03-31T08:50:01.495Z,20.37
2019-03-31T08:50:58.907Z,20.26
2019-03-31T08:51:59.683Z,20.4
2019-03-31T08:53:00.184Z,20.48
2019-03-31T08:54:00.693Z,20.29
2019-03-31T08:55:01.906Z,20.83
2019-03-31T08:56:02.969Z,21.11
2019-03-31T08:57:03.664Z,21.53
2019-03-31T08:58:04.442Z,21.66
2019-03-31T08:59:04.675Z,21.97
2019-03-31T09:00:05.786Z,22.12
2019-03-31T09:01:06.571Z,22.36
2019-03-31T09:02:06.799Z,22.3
2019-03-31T09:03:07.869Z,22.4
2019-03-31T09:04:08.936Z,22.08
2019-03-31T09:05:10.273Z,22.49
2019-03-31T09:06:11.118Z,22.74
2019-03-31T09:07:11.668Z,22.8
2019-03-31T09:08:12.735Z,22.91
2019-03-31T09:09:13.241Z,22.83
2019-03-31T09:10:13.750Z,22.84
2019-03-31T09:11:14.533Z,22.49
2019-03-31T09:12:14.752Z,22.46
2019-03-31T09:13:15.023Z,22.38
2019-03-31T09:14:15.246Z,22.37
2019-03-31T09:15:16.030Z,22.51
2019-03-31T09:16:16.809Z,22.37
2019-03-31T09:17:16.491Z,22.16
2019-03-31T09:18:16.989Z,22.25
2019-03-31T09:19:17.487Z,22.15
2019-03-31T09:20:18.077Z,22.15
2019-03-31T09:21:18.879Z,22.26
2019-03-31T09:22:19.669Z,22.41
2019-03-31T09:23:21.088Z,22.58
2019-03-31T09:24:21.962Z,22.65
2019-03-31T09:25:23.017Z,22.7
2019-03-31T09:26:23.521Z,22.76
2019-03-31T09:27:24.359Z,22.78
2019-03-31T09:28:24.863Z,22.92
2019-03-31T09:29:25.948Z,23.07
2019-03-31T09:30:26.726Z,23.32
2019-03-31T09:31:27.231Z,23.51
2019-03-31T09:32:28.297Z,23.76
2019-03-31T09:33:28.857Z,23.79
2019-03-31T09:34:29.359Z,23.74
2019-03-31T09:35:29.862Z,23.45
2019-03-31T09:36:30.087Z,23.29
2019-03-31T09:37:30.905Z,23.17
2019-03-31T09:38:31.765Z,23.26
2019-03-31T09:39:32.264Z,23.02
2019-03-31T09:40:32.490Z,22.95
2019-03-31T09:41:32.990Z,22.95
2019-03-31T09:42:33.492Z,23.13
2019-03-31T09:43:34.277Z,23.23
2019-03-31T09:44:34.776Z,23.49
2019-03-31T09:45:35.868Z,23.77
2019-03-31T09:46:36.206Z,23.99
2019-03-31T09:47:36.318Z,24.03
2019-03-31T09:48:36.836Z,24.37
2019-03-31T09:49:37.908Z,24.5
2019-03-31T09:50:39.031Z,24.59
2019-03-31T09:51:39.820Z,24.65
2019-03-31T09:52:41.437Z,24.89
2019-03-31T09:53:41.778Z,25.07
2019-03-31T09:54:42.298Z,25.24
2019-03-31T09:55:43.072Z,25.54
2019-03-31T09:56:44.129Z,25.22
2019-03-31T09:57:43.908Z,24.86
2019-03-31T09:58:44.973Z,24.58
2019-03-31T09:59:45.197Z,24.06
2019-03-31T10:00:45.424Z,23.85
2019-03-31T10:01:46.573Z,23.62
2019-03-31T10:02:47.076Z,23.4
2019-03-31T10:03:47.578Z,23.08
2019-03-31T10:04:47.799Z,22.73
2019-03-31T10:05:49.601Z,22.76
2019-03-31T10:06:49.823Z,22.89
2019-03-31T10:07:50.450Z,22.73
2019-03-31T10:08:50.793Z,23.28
2019-03-31T10:09:51.293Z,23.52
2019-03-31T10:10:52.357Z,23.45
2019-03-31T10:11:53.133Z,23.7
2019-03-31T10:12:53.358Z,23.51
2019-03-31T10:13:54.419Z,23.62
2019-03-31T10:14:55.760Z,23.59
2019-03-31T10:15:56.650Z,23.84
2019-03-31T10:16:56.879Z,23.49
2019-03-31T10:17:58.168Z,23.55
2019-03-31T10:18:59.235Z,23.63
2019-03-31T10:20:00.027Z,23.25
2019-03-31T10:21:00.978Z,23.7
2019-03-31T10:22:01.761Z,23.64
2019-03-31T10:23:02.274Z,23.84
2019-03-31T10:24:03.097Z,23.66
2019-03-31T10:25:04.268Z,23.99
2019-03-31T10:26:06.164Z,24.25
2019-03-31T10:27:07.334Z,24.47
2019-03-31T10:28:09.012Z,24.28
2019-03-31T10:29:09.336Z,24.31
2019-03-31T10:30:13.921Z,24.14
2019-03-31T10:30:23.077Z,24.34
2019-03-31T10:31:20.434Z,24.1
2019-03-31T10:32:21.503Z,24.59
2019-03-31T10:33:24.321Z,25
2019-03-31T10:34:23.088Z,25.21
2019-03-31T10:35:24.380Z,25.24
2019-03-31T10:36:25.048Z,25.43
2019-03-31T10:37:26.111Z,25.39
2019-03-31T10:38:26.346Z,25.62
2019-03-31T10:39:26.853Z,25.83
2019-03-31T10:40:27.431Z,25.76
2019-03-31T10:41:31.844Z,25.49
2019-03-31T10:42:32.343Z,25.15
2019-03-31T10:43:32.570Z,25.22
2019-03-31T10:44:32.884Z,24.53
2019-03-31T10:45:33.676Z,24.32
2019-03-31T10:46:34.194Z,24.31
2019-03-31T10:47:34.486Z,24.74
2019-03-31T10:48:35.347Z,25
2019-03-31T10:49:35.956Z,25.11
2019-03-31T10:50:36.210Z,25.22
2019-03-31T10:51:36.461Z,25.31
2019-03-31T10:52:37.328Z,25.54
2019-03-31T10:53:38.685Z,25.71
2019-03-31T10:54:39.747Z,26.01
2019-03-31T10:55:40.815Z,25.83
2019-03-31T10:56:41.893Z,25.56
2019-03-31T10:57:42.396Z,25.66
2019-03-31T10:58:43.242Z,25.86
2019-03-31T10:59:43.470Z,25.78
2019-03-31T11:00:45.988Z,25.41
2019-03-31T11:01:46.935Z,25.29
2019-03-31T11:02:47.190Z,25.56
2019-03-31T11:03:47.972Z,25.31
2019-03-31T11:04:48.761Z,25.11
2019-03-31T11:05:49.544Z,24.55
2019-03-31T11:07:04.287Z,24.59
2019-03-31T11:08:01.652Z,24.55
2019-03-31T11:09:02.453Z,24.65
2019-03-31T11:10:03.244Z,24.86
2019-03-31T11:11:04.041Z,25.14
2019-03-31T11:12:04.557Z,25.29
2019-03-31T11:13:05.367Z,25.41
2019-03-31T11:14:05.628Z,25.8
2019-03-31T11:15:06.413Z,25.88
2019-03-31T11:16:07.202Z,25.43
2019-03-31T11:17:07.432Z,25.09
2019-03-31T11:18:07.929Z,24.56
2019-03-31T11:19:08.439Z,24.41
2019-03-31T11:20:09.310Z,24.63
2019-03-31T11:21:10.090Z,24.86
2019-03-31T11:22:10.927Z,24.68
2019-03-31T11:23:12.312Z,24.32
2019-03-31T11:24:12.101Z,23.79
2019-03-31T11:25:30.189Z,23.79
2019-03-31T11:25:33.926Z,23.79
2019-03-31T11:26:33.694Z,23.84
2019-03-31T11:27:34.200Z,23.86
2019-03-31T11:28:34.718Z,23.71
2019-03-31T11:29:35.575Z,23.67
2019-03-31T11:30:36.180Z,23.91
2019-03-31T11:31:36.978Z,23.89
2019-03-31T11:32:37.837Z,23.84
2019-03-31T11:33:38.174Z,23.36
2019-03-31T11:34:38.685Z,23.26
2019-03-31T11:35:39.468Z,23.26
2019-03-31T11:36:40.456Z,23.54
2019-03-31T11:37:40.959Z,23.79
2019-03-31T11:38:41.799Z,24.06
2019-03-31T11:39:42.315Z,24.21
2019-03-31T11:40:43.097Z,24.32
2019-03-31T11:41:44.439Z,24.43
2019-03-31T11:42:44.219Z,23.89
2019-03-31T11:43:44.451Z,23.74
2019-03-31T11:44:44.869Z,23.63
2019-03-31T11:45:45.936Z,23.25
2019-03-31T11:46:46.353Z,22.95
2019-03-31T11:47:47.140Z,22.96
2019-03-31T11:48:47.981Z,23.02
2019-03-31T11:49:48.482Z,23.13
2019-03-31T11:50:49.277Z,23.26
2019-03-31T11:51:49.779Z,23.32
2019-03-31T11:52:50.558Z,23.54
2019-03-31T11:53:50.785Z,23.54
2019-03-31T11:54:51.068Z,23.16
2019-03-31T11:55:51.660Z,23.18
2019-03-31T11:56:52.910Z,23.01
2019-03-31T11:57:53.700Z,23.1
2019-03-31T11:58:54.211Z,23.11
2019-03-31T11:59:55.280Z,23.4
2019-03-31T12:00:55.793Z,23.51
2019-03-31T12:01:56.738Z,23.81
2019-03-31T12:02:58.443Z,24.01
2019-03-31T12:03:59.491Z,23.88
2019-03-31T12:05:00.146Z,23.62
2019-03-31T12:06:01.436Z,23.44
2019-03-31T12:07:01.866Z,23.25
2019-03-31T12:08:02.373Z,23.14
2019-03-31T12:09:02.883Z,22.95
2019-03-31T12:10:03.678Z,23.08
2019-03-31T12:11:04.564Z,23.28
2019-03-31T12:12:04.908Z,23.62
2019-03-31T12:13:05.695Z,23.64
2019-03-31T12:14:06.431Z,23.64
2019-03-31T12:15:06.966Z,23.48
2019-03-31T12:16:08.034Z,23.2
2019-03-31T12:17:09.033Z,23.2
2019-03-31T12:18:09.817Z,22.93
2019-03-31T12:19:10.327Z,22.7
2019-03-31T12:20:10.833Z,22.67
2019-03-31T12:21:11.611Z,22.61
2019-03-31T12:22:12.102Z,22.7
2019-03-31T12:23:12.350Z,22.63
2019-03-31T12:24:12.853Z,22.76
2019-03-31T12:25:13.354Z,22.84
2019-03-31T12:26:14.024Z,22.83
2019-03-31T12:27:14.800Z,23.01
2019-03-31T12:28:15.301Z,23.1
2019-03-31T12:29:16.367Z,23.01
2019-03-31T12:30:17.609Z,23.1
2019-03-31T12:31:18.394Z,22.93
2019-03-31T12:32:19.465Z,22.81
2019-03-31T12:33:20.527Z,22.78
2019-03-31T12:34:21.693Z,22.33
2019-03-31T12:35:21.765Z,22.04
2019-03-31T12:36:22.567Z,22.1
2019-03-31T12:37:23.047Z,21.97
2019-03-31T12:38:23.836Z,22.03
2019-03-31T12:39:24.418Z,22.28
2019-03-31T12:40:24.970Z,22.41
2019-03-31T12:41:25.478Z,22.55
2019-03-31T12:42:25.979Z,22.65
2019-03-31T12:43:26.316Z,22.55
2019-03-31T12:44:26.869Z,22.77
2019-03-31T12:45:27.649Z,22.8
2019-03-31T12:46:28.473Z,22.98
2019-03-31T12:47:29.472Z,23.13
2019-03-31T12:48:32.748Z,23.36
2019-03-31T12:49:33.596Z,23.59
2019-03-31T12:50:34.176Z,23.76
2019-03-31T12:51:34.475Z,23.34
2019-03-31T12:52:51.978Z,23.28
2019-03-31T12:52:56.814Z,23.26
2019-03-31T12:53:56.777Z,23.23
2019-03-31T12:54:57.529Z,23.11
2019-03-31T12:56:01.550Z,23.07
2019-03-31T12:57:02.073Z,22.78
2019-03-31T12:58:03.162Z,22.44
2019-03-31T12:59:03.731Z,22.36
2019-03-31T13:00:04.235Z,22.33
2019-03-31T13:01:05.175Z,22.38
2019-03-31T13:02:05.406Z,22.22
2019-03-31T13:03:06.500Z,22.25
2019-03-31T13:04:06.797Z,22.18
2019-03-31T13:05:07.026Z,22.1
2019-03-31T13:06:07.802Z,22.18
2019-03-31T13:07:08.314Z,22
2019-03-31T13:08:11.700Z,21.84
2019-03-31T13:09:10.765Z,22
2019-03-31T13:10:11.547Z,22.04
2019-03-31T13:11:12.337Z,22.34
2019-03-31T13:12:12.850Z,22.4
2019-03-31T13:13:13.356Z,22.46
2019-03-31T13:14:14.061Z,22.61